sensor_id;sensor_type;location;lat;lon;timestamp;P1;durP1;ratioP1;P2;durP2;ratioP2
23670;SDS011;12012;51.998;7.614;2022-09-09T00:03:44;3.85;;;1.88;;
23670;SDS011;12012;51.998;7.614;2022-09-09T00:06:23;5.20;;;2.40;;
23670;SDS011;12012;51.998;7.614;2022-09-09T00:11:26;5.00;;;2.20;;
23670;SDS011;12012;51.998;7.614;2022-09-09T00:13:56;6.72;;;2.15;;
23670;SDS011;12012;51.998;7.614;2022-09-09T00:16:27;4.43;;;2.20;;
23670;SDS011;12012;51.998;7.614;2022-09-09T00:21:58;6.45;;;2.00;;
23670;SDS011;12012;51.998;7.614;2022-09-09T00:24:44;5.18;;;2.50;;
23670;SDS011;12012;51.998;7.614;2022-09-09T00:27:15;7.68;;;2.20;;
23670;SDS011;12012;51.998;7.614;2022-09-09T00:32:20;4.88;;;2.00;;
23670;SDS011;12012;51.998;7.614;2022-09-09T00:34:55;3.15;;;1.90;;
23670;SDS011;12012;51.998;7.614;2022-09-09T00:37:25;5.63;;;2.30;;
23670;SDS011;12012;51.998;7.614;2022-09-09T00:39:54;5.78;;;1.95;;
23670;SDS011;12012;51.998;7.614;2022-09-09T00:42:23;6.97;;;2.22;;
23670;SDS011;12012;51.998;7.614;2022-09-09T00:45:05;4.00;;;2.20;;
23670;SDS011;12012;51.998;7.614;2022-09-09T00:47:54;7.18;;;2.60;;
23670;SDS011;12012;51.998;7.614;2022-09-09T00:58:26;4.20;;;2.00;;
23670;SDS011;12012;51.998;7.614;2022-09-09T01:00:56;5.78;;;1.95;;
23670;SDS011;12012;51.998;7.614;2022-09-09T01:06:12;5.13;;;2.00;;
23670;SDS011;12012;51.998;7.614;2022-09-09T01:14:13;3.50;;;1.60;;
23670;SDS011;12012;51.998;7.614;2022-09-09T01:16:43;2.90;;;1.48;;
23670;SDS011;12012;51.998;7.614;2022-09-09T01:19:10;2.50;;;1.42;;
23670;SDS011;12012;51.998;7.614;2022-09-09T01:21:50;2.17;;;1.33;;
23670;SDS011;12012;51.998;7.614;2022-09-09T01:27:30;4.72;;;1.55;;
23670;SDS011;12012;51.998;7.614;2022-09-09T01:29:57;3.17;;;1.50;;
23670;SDS011;12012;51.998;7.614;2022-09-09T01:35:13;3.28;;;1.35;;
23670;SDS011;12012;51.998;7.614;2022-09-09T01:40:26;3.03;;;1.48;;
23670;SDS011;12012;51.998;7.614;2022-09-09T01:42:52;1.63;;;1.40;;
23670;SDS011;12012;51.998;7.614;2022-09-09T01:45:18;2.92;;;1.20;;
23670;SDS011;12012;51.998;7.614;2022-09-09T01:47:44;4.35;;;1.40;;
23670;SDS011;12012;51.998;7.614;2022-09-09T01:50:11;2.92;;;1.55;;
23670;SDS011;12012;51.998;7.614;2022-09-09T01:52:39;4.00;;;1.63;;
23670;SDS011;12012;51.998;7.614;2022-09-09T01:55:05;1.95;;;1.40;;
23670;SDS011;12012;51.998;7.614;2022-09-09T01:57:33;4.35;;;1.48;;
23670;SDS011;12012;51.998;7.614;2022-09-09T02:00:24;6.35;;;1.67;;
23670;SDS011;12012;51.998;7.614;2022-09-09T02:02:59;3.08;;;1.40;;
23670;SDS011;12012;51.998;7.614;2022-09-09T02:05:34;2.35;;;1.40;;
23670;SDS011;12012;51.998;7.614;2022-09-09T02:08:13;2.47;;;1.52;;
23670;SDS011;12012;51.998;7.614;2022-09-09T02:10:50;3.65;;;1.50;;
23670;SDS011;12012;51.998;7.614;2022-09-09T02:13:37;2.80;;;1.50;;
23670;SDS011;12012;51.998;7.614;2022-09-09T02:16:07;3.15;;;1.48;;
23670;SDS011;12012;51.998;7.614;2022-09-09T02:18:39;3.22;;;1.60;;
23670;SDS011;12012;51.998;7.614;2022-09-09T02:21:26;2.75;;;1.60;;
23670;SDS011;12012;51.998;7.614;2022-09-09T02:23:56;3.23;;;1.70;;
23670;SDS011;12012;51.998;7.614;2022-09-09T02:26:25;3.08;;;1.50;;
23670;SDS011;12012;51.998;7.614;2022-09-09T02:28:52;4.15;;;1.70;;
23670;SDS011;12012;51.998;7.614;2022-09-09T02:31:22;5.07;;;1.30;;
23670;SDS011;12012;51.998;7.614;2022-09-09T02:33:57;3.65;;;1.50;;
23670;SDS011;12012;51.998;7.614;2022-09-09T02:36:26;3.25;;;1.52;;
23670;SDS011;12012;51.998;7.614;2022-09-09T02:38:54;3.35;;;1.73;;
23670;SDS011;12012;51.998;7.614;2022-09-09T02:41:23;2.63;;;1.67;;
23670;SDS011;12012;51.998;7.614;2022-09-09T02:43:52;4.13;;;1.80;;
23670;SDS011;12012;51.998;7.614;2022-09-09T02:54:17;1.75;;;1.13;;
23670;SDS011;12012;51.998;7.614;2022-09-09T02:56:55;2.63;;;1.65;;
23670;SDS011;12012;51.998;7.614;2022-09-09T02:59:29;2.75;;;1.40;;
23670;SDS011;12012;51.998;7.614;2022-09-09T03:01:55;2.55;;;1.45;;
23670;SDS011;12012;51.998;7.614;2022-09-09T03:04:21;3.92;;;1.30;;
23670;SDS011;12012;51.998;7.614;2022-09-09T03:06:46;3.03;;;1.23;;
23670;SDS011;12012;51.998;7.614;2022-09-09T03:09:12;2.88;;;1.23;;
23670;SDS011;12012;51.998;7.614;2022-09-09T03:11:38;3.22;;;1.42;;
23670;SDS011;12012;51.998;7.614;2022-09-09T03:14:04;2.85;;;1.95;;
23670;SDS011;12012;51.998;7.614;2022-09-09T03:16:30;1.85;;;1.38;;
23670;SDS011;12012;51.998;7.614;2022-09-09T03:18:55;1.98;;;1.40;;
23670;SDS011;12012;51.998;7.614;2022-09-09T03:21:21;1.48;;;1.20;;
23670;SDS011;12012;51.998;7.614;2022-09-09T03:23:46;2.38;;;1.17;;
23670;SDS011;12012;51.998;7.614;2022-09-09T03:26:12;4.30;;;1.67;;
23670;SDS011;12012;51.998;7.614;2022-09-09T03:28:40;2.60;;;1.10;;
23670;SDS011;12012;51.998;7.614;2022-09-09T03:31:06;2.20;;;1.42;;
23670;SDS011;12012;51.998;7.614;2022-09-09T03:33:35;3.25;;;1.70;;
23670;SDS011;12012;51.998;7.614;2022-09-09T03:36:04;2.58;;;1.40;;
23670;SDS011;12012;51.998;7.614;2022-09-09T03:38:30;4.00;;;1.92;;
23670;SDS011;12012;51.998;7.614;2022-09-09T03:40:57;2.03;;;1.23;;
23670;SDS011;12012;51.998;7.614;2022-09-09T03:43:23;2.95;;;1.83;;
23670;SDS011;12012;51.998;7.614;2022-09-09T03:45:50;4.30;;;1.70;;
23670;SDS011;12012;51.998;7.614;2022-09-09T03:48:17;2.25;;;1.88;;
23670;SDS011;12012;51.998;7.614;2022-09-09T03:50:46;2.83;;;2.03;;
23670;SDS011;12012;51.998;7.614;2022-09-09T03:53:14;3.65;;;2.25;;
23670;SDS011;12012;51.998;7.614;2022-09-09T03:55:47;4.95;;;2.00;;
23670;SDS011;12012;51.998;7.614;2022-09-09T03:58:15;3.92;;;3.15;;
23670;SDS011;12012;51.998;7.614;2022-09-09T04:00:43;3.30;;;1.70;;
23670;SDS011;12012;51.998;7.614;2022-09-09T04:03:17;3.92;;;2.75;;
23670;SDS011;12012;51.998;7.614;2022-09-09T04:05:48;4.82;;;3.20;;
23670;SDS011;12012;51.998;7.614;2022-09-09T04:08:14;5.10;;;3.35;;
23670;SDS011;12012;51.998;7.614;2022-09-09T04:10:39;6.13;;;3.67;;
23670;SDS011;12012;51.998;7.614;2022-09-09T04:13:06;4.85;;;3.60;;
23670;SDS011;12012;51.998;7.614;2022-09-09T04:15:32;3.50;;;2.30;;
23670;SDS011;12012;51.998;7.614;2022-09-09T04:18:00;5.47;;;4.22;;
23670;SDS011;12012;51.998;7.614;2022-09-09T04:20:26;8.10;;;4.60;;
23670;SDS011;12012;51.998;7.614;2022-09-09T04:22:51;6.55;;;4.35;;
23670;SDS011;12012;51.998;7.614;2022-09-09T04:25:17;4.63;;;3.75;;
23670;SDS011;12012;51.998;7.614;2022-09-09T04:27:42;4.40;;;3.35;;
23670;SDS011;12012;51.998;7.614;2022-09-09T04:30:09;5.40;;;3.05;;
23670;SDS011;12012;51.998;7.614;2022-09-09T04:32:35;6.03;;;4.55;;
23670;SDS011;12012;51.998;7.614;2022-09-09T04:35:01;10.40;;;5.45;;
23670;SDS011;12012;51.998;7.614;2022-09-09T04:37:28;6.70;;;4.25;;
23670;SDS011;12012;51.998;7.614;2022-09-09T04:39:53;7.68;;;4.22;;
23670;SDS011;12012;51.998;7.614;2022-09-09T04:42:19;5.45;;;3.55;;
23670;SDS011;12012;51.998;7.614;2022-09-09T04:44:44;4.85;;;4.07;;
23670;SDS011;12012;51.998;7.614;2022-09-09T04:47:10;7.95;;;3.42;;
23670;SDS011;12012;51.998;7.614;2022-09-09T04:49:36;7.43;;;4.85;;
23670;SDS011;12012;51.998;7.614;2022-09-09T04:52:03;6.28;;;3.30;;
23670;SDS011;12012;51.998;7.614;2022-09-09T04:54:29;8.82;;;4.57;;
23670;SDS011;12012;51.998;7.614;2022-09-09T04:56:54;7.22;;;3.55;;
23670;SDS011;12012;51.998;7.614;2022-09-09T04:59:20;7.93;;;3.97;;
23670;SDS011;12012;51.998;7.614;2022-09-09T05:01:47;8.13;;;4.60;;
23670;SDS011;12012;51.998;7.614;2022-09-09T05:04:13;10.07;;;4.80;;
23670;SDS011;12012;51.998;7.614;2022-09-09T05:06:40;5.88;;;3.50;;
23670;SDS011;12012;51.998;7.614;2022-09-09T05:09:07;7.03;;;3.17;;
23670;SDS011;12012;51.998;7.614;2022-09-09T05:11:33;7.57;;;4.18;;
23670;SDS011;12012;51.998;7.614;2022-09-09T05:14:01;7.68;;;4.43;;
23670;SDS011;12012;51.998;7.614;2022-09-09T05:16:27;7.15;;;3.40;;
23670;SDS011;12012;51.998;7.614;2022-09-09T05:18:53;5.07;;;3.13;;
23670;SDS011;12012;51.998;7.614;2022-09-09T05:21:19;7.85;;;3.42;;
23670;SDS011;12012;51.998;7.614;2022-09-09T05:23:46;6.18;;;3.00;;
23670;SDS011;12012;51.998;7.614;2022-09-09T05:26:16;3.83;;;2.90;;
23670;SDS011;12012;51.998;7.614;2022-09-09T05:28:43;9.82;;;3.25;;
23670;SDS011;12012;51.998;7.614;2022-09-09T05:31:09;8.77;;;3.28;;
23670;SDS011;12012;51.998;7.614;2022-09-09T05:33:39;6.55;;;3.17;;
23670;SDS011;12012;51.998;7.614;2022-09-09T05:36:06;8.55;;;3.42;;
23670;SDS011;12012;51.998;7.614;2022-09-09T05:38:34;8.63;;;3.45;;
23670;SDS011;12012;51.998;7.614;2022-09-09T05:41:02;9.02;;;3.20;;
23670;SDS011;12012;51.998;7.614;2022-09-09T05:43:28;6.97;;;3.45;;
23670;SDS011;12012;51.998;7.614;2022-09-09T05:46:04;7.93;;;3.83;;
23670;SDS011;12012;51.998;7.614;2022-09-09T05:48:30;7.80;;;3.00;;
23670;SDS011;12012;51.998;7.614;2022-09-09T05:50:57;6.50;;;3.10;;
23670;SDS011;12012;51.998;7.614;2022-09-09T05:53:27;8.43;;;3.72;;
23670;SDS011;12012;51.998;7.614;2022-09-09T05:56:04;8.30;;;2.90;;
23670;SDS011;12012;51.998;7.614;2022-09-09T05:58:31;6.80;;;2.65;;
23670;SDS011;12012;51.998;7.614;2022-09-09T06:01:02;6.80;;;2.33;;
23670;SDS011;12012;51.998;7.614;2022-09-09T06:03:33;7.18;;;2.42;;
23670;SDS011;12012;51.998;7.614;2022-09-09T06:06:00;7.55;;;2.60;;
23670;SDS011;12012;51.998;7.614;2022-09-09T06:08:27;6.80;;;2.70;;
23670;SDS011;12012;51.998;7.614;2022-09-09T06:10:53;6.57;;;3.05;;
23670;SDS011;12012;51.998;7.614;2022-09-09T06:13:18;5.70;;;2.50;;
23670;SDS011;12012;51.998;7.614;2022-09-09T06:15:53;7.55;;;2.92;;
23670;SDS011;12012;51.998;7.614;2022-09-09T06:18:19;8.10;;;3.35;;
23670;SDS011;12012;51.998;7.614;2022-09-09T06:20:57;8.52;;;2.80;;
23670;SDS011;12012;51.998;7.614;2022-09-09T06:23:29;7.75;;;2.78;;
23670;SDS011;12012;51.998;7.614;2022-09-09T06:26:05;5.88;;;2.28;;
23670;SDS011;12012;51.998;7.614;2022-09-09T06:28:46;7.25;;;2.20;;
23670;SDS011;12012;51.998;7.614;2022-09-09T06:31:13;7.20;;;3.15;;
23670;SDS011;12012;51.998;7.614;2022-09-09T06:33:42;9.13;;;2.70;;
23670;SDS011;12012;51.998;7.614;2022-09-09T06:36:12;7.38;;;2.63;;
23670;SDS011;12012;51.998;7.614;2022-09-09T06:38:40;5.72;;;2.97;;
23670;SDS011;12012;51.998;7.614;2022-09-09T06:41:07;10.48;;;2.63;;
23670;SDS011;12012;51.998;7.614;2022-09-09T06:43:33;7.38;;;3.25;;
23670;SDS011;12012;51.998;7.614;2022-09-09T06:46:04;7.93;;;3.00;;
23670;SDS011;12012;51.998;7.614;2022-09-09T06:48:38;6.40;;;2.33;;
23670;SDS011;12012;51.998;7.614;2022-09-09T06:51:08;5.78;;;2.30;;
23670;SDS011;12012;51.998;7.614;2022-09-09T06:53:39;7.40;;;2.63;;
23670;SDS011;12012;51.998;7.614;2022-09-09T06:58:57;8.18;;;2.47;;
23670;SDS011;12012;51.998;7.614;2022-09-09T07:01:27;7.38;;;2.40;;
23670;SDS011;12012;51.998;7.614;2022-09-09T07:03:54;8.13;;;2.80;;
23670;SDS011;12012;51.998;7.614;2022-09-09T07:06:26;7.78;;;2.78;;
23670;SDS011;12012;51.998;7.614;2022-09-09T07:09:06;4.72;;;2.38;;
23670;SDS011;12012;51.998;7.614;2022-09-09T07:11:34;5.25;;;2.70;;
23670;SDS011;12012;51.998;7.614;2022-09-09T07:14:03;5.40;;;2.42;;
23670;SDS011;12012;51.998;7.614;2022-09-09T07:16:29;7.70;;;2.20;;
23670;SDS011;12012;51.998;7.614;2022-09-09T07:18:56;8.25;;;2.75;;
23670;SDS011;12012;51.998;7.614;2022-09-09T07:21:26;7.15;;;2.35;;
23670;SDS011;12012;51.998;7.614;2022-09-09T07:23:52;10.07;;;3.10;;
23670;SDS011;12012;51.998;7.614;2022-09-09T07:26:20;6.30;;;2.40;;
23670;SDS011;12012;51.998;7.614;2022-09-09T07:28:47;12.00;;;3.50;;
23670;SDS011;12012;51.998;7.614;2022-09-09T07:31:14;12.30;;;3.70;;
23670;SDS011;12012;51.998;7.614;2022-09-09T07:33:42;12.80;;;3.47;;
23670;SDS011;12012;51.998;7.614;2022-09-09T07:36:16;10.77;;;3.35;;
23670;SDS011;12012;51.998;7.614;2022-09-09T07:38:54;10.98;;;3.05;;
23670;SDS011;12012;51.998;7.614;2022-09-09T07:43:48;11.05;;;2.70;;
23670;SDS011;12012;51.998;7.614;2022-09-09T07:46:15;8.23;;;2.58;;
23670;SDS011;12012;51.998;7.614;2022-09-09T07:48:44;6.93;;;2.85;;
23670;SDS011;12012;51.998;7.614;2022-09-09T07:51:12;7.03;;;2.45;;
23670;SDS011;12012;51.998;7.614;2022-09-09T07:53:44;5.65;;;2.58;;
23670;SDS011;12012;51.998;7.614;2022-09-09T07:56:11;8.15;;;2.42;;
23670;SDS011;12012;51.998;7.614;2022-09-09T07:58:39;6.18;;;1.90;;
23670;SDS011;12012;51.998;7.614;2022-09-09T08:01:07;6.18;;;2.28;;
23670;SDS011;12012;51.998;7.614;2022-09-09T08:03:38;5.82;;;2.10;;
23670;SDS011;12012;51.998;7.614;2022-09-09T08:06:05;9.48;;;2.40;;
23670;SDS011;12012;51.998;7.614;2022-09-09T08:08:33;5.93;;;2.10;;
23670;SDS011;12012;51.998;7.614;2022-09-09T08:11:03;10.25;;;2.35;;
23670;SDS011;12012;51.998;7.614;2022-09-09T08:13:32;6.47;;;2.40;;
23670;SDS011;12012;51.998;7.614;2022-09-09T08:16:06;8.82;;;2.47;;
23670;SDS011;12012;51.998;7.614;2022-09-09T08:18:34;7.38;;;2.17;;
23670;SDS011;12012;51.998;7.614;2022-09-09T08:21:06;6.72;;;2.40;;
23670;SDS011;12012;51.998;7.614;2022-09-09T08:23:37;8.57;;;2.85;;
23670;SDS011;12012;51.998;7.614;2022-09-09T08:26:05;10.05;;;2.65;;
23670;SDS011;12012;51.998;7.614;2022-09-09T08:28:31;8.20;;;2.25;;
23670;SDS011;12012;51.998;7.614;2022-09-09T08:31:04;5.38;;;2.00;;
23670;SDS011;12012;51.998;7.614;2022-09-09T08:33:38;7.53;;;2.10;;
23670;SDS011;12012;51.998;7.614;2022-09-09T08:36:06;8.90;;;2.20;;
23670;SDS011;12012;51.998;7.614;2022-09-09T08:38:34;7.25;;;2.60;;
23670;SDS011;12012;51.998;7.614;2022-09-09T08:41:06;5.00;;;2.30;;
23670;SDS011;12012;51.998;7.614;2022-09-09T08:43:50;7.85;;;2.40;;
23670;SDS011;12012;51.998;7.614;2022-09-09T08:46:30;5.60;;;2.55;;
23670;SDS011;12012;51.998;7.614;2022-09-09T08:49:46;8.60;;;2.75;;
23670;SDS011;12012;51.998;7.614;2022-09-09T08:52:22;7.40;;;2.08;;
23670;SDS011;12012;51.998;7.614;2022-09-09T08:54:52;6.85;;;2.30;;
23670;SDS011;12012;51.998;7.614;2022-09-09T08:57:23;8.88;;;3.10;;
23670;SDS011;12012;51.998;7.614;2022-09-09T08:59:52;10.60;;;2.55;;
23670;SDS011;12012;51.998;7.614;2022-09-09T09:02:24;6.32;;;2.33;;
23670;SDS011;12012;51.998;7.614;2022-09-09T09:13:01;5.32;;;2.58;;
23670;SDS011;12012;51.998;7.614;2022-09-09T09:15:33;8.02;;;2.60;;
23670;SDS011;12012;51.998;7.614;2022-09-09T09:18:03;5.18;;;2.58;;
23670;SDS011;12012;51.998;7.614;2022-09-09T09:20:36;6.43;;;2.10;;
23670;SDS011;12012;51.998;7.614;2022-09-09T09:23:19;7.35;;;2.40;;
23670;SDS011;12012;51.998;7.614;2022-09-09T09:28:19;8.70;;;2.20;;
23670;SDS011;12012;51.998;7.614;2022-09-09T09:30:53;9.30;;;2.20;;
23670;SDS011;12012;51.998;7.614;2022-09-09T09:34:08;6.47;;;1.98;;
23670;SDS011;12012;51.998;7.614;2022-09-09T09:36:17;6.45;;;1.85;;
23670;SDS011;12012;51.998;7.614;2022-09-09T09:38:57;7.55;;;2.13;;
23670;SDS011;12012;51.998;7.614;2022-09-09T09:41:35;6.20;;;2.10;;
23670;SDS011;12012;51.998;7.614;2022-09-09T09:44:03;5.20;;;2.00;;
23670;SDS011;12012;51.998;7.614;2022-09-09T09:46:31;6.93;;;1.73;;
23670;SDS011;12012;51.998;7.614;2022-09-09T09:49:04;5.20;;;1.77;;
23670;SDS011;12012;51.998;7.614;2022-09-09T09:51:33;8.60;;;2.55;;
23670;SDS011;12012;51.998;7.614;2022-09-09T09:56:38;6.15;;;1.75;;
23670;SDS011;12012;51.998;7.614;2022-09-09T09:59:05;6.28;;;2.00;;
23670;SDS011;12012;51.998;7.614;2022-09-09T10:01:43;6.28;;;2.05;;
23670;SDS011;12012;51.998;7.614;2022-09-09T10:04:16;14.15;;;2.78;;
23670;SDS011;12012;51.998;7.614;2022-09-09T10:06:45;6.97;;;1.73;;
23670;SDS011;12012;51.998;7.614;2022-09-09T10:09:27;4.68;;;1.80;;
23670;SDS011;12012;51.998;7.614;2022-09-09T10:17:27;7.18;;;1.80;;
23670;SDS011;12012;51.998;7.614;2022-09-09T10:22:39;4.95;;;1.80;;
23670;SDS011;12012;51.998;7.614;2022-09-09T10:28:20;4.15;;;1.75;;
23670;SDS011;12012;51.998;7.614;2022-09-09T10:33:53;5.18;;;1.40;;
23670;SDS011;12012;51.998;7.614;2022-09-09T10:36:27;5.53;;;1.70;;
23670;SDS011;12012;51.998;7.614;2022-09-09T10:39:04;7.13;;;1.45;;
23670;SDS011;12012;51.998;7.614;2022-09-09T10:55:44;5.00;;;2.08;;
23670;SDS011;12012;51.998;7.614;2022-09-09T11:01:18;4.68;;;1.58;;
23670;SDS011;12012;51.998;7.614;2022-09-09T11:04:15;5.15;;;1.70;;
23670;SDS011;12012;51.998;7.614;2022-09-09T11:06:57;5.57;;;1.88;;
23670;SDS011;12012;51.998;7.614;2022-09-09T11:09:29;4.75;;;1.38;;
23670;SDS011;12012;51.998;7.614;2022-09-09T11:11:59;5.82;;;1.70;;
23670;SDS011;12012;51.998;7.614;2022-09-09T11:14:36;5.20;;;1.83;;
23670;SDS011;12012;51.998;7.614;2022-09-09T11:17:11;6.35;;;1.40;;
23670;SDS011;12012;51.998;7.614;2022-09-09T11:19:42;4.38;;;1.60;;
23670;SDS011;12012;51.998;7.614;2022-09-09T11:25:04;4.68;;;1.70;;
23670;SDS011;12012;51.998;7.614;2022-09-09T11:33:34;4.72;;;1.70;;
23670;SDS011;12012;51.998;7.614;2022-09-09T11:36:29;5.05;;;1.95;;
23670;SDS011;12012;51.998;7.614;2022-09-09T11:39:30;4.53;;;1.83;;
23670;SDS011;12012;51.998;7.614;2022-09-09T11:44:44;4.13;;;2.05;;
23670;SDS011;12012;51.998;7.614;2022-09-09T11:52:40;4.70;;;1.95;;
23670;SDS011;12012;51.998;7.614;2022-09-09T11:55:29;5.78;;;1.70;;
23670;SDS011;12012;51.998;7.614;2022-09-09T11:58:18;4.50;;;1.52;;
23670;SDS011;12012;51.998;7.614;2022-09-09T12:00:48;4.47;;;1.60;;
23670;SDS011;12012;51.998;7.614;2022-09-09T12:05:59;4.00;;;1.50;;
23670;SDS011;12012;51.998;7.614;2022-09-09T12:08:40;3.72;;;1.65;;
23670;SDS011;12012;51.998;7.614;2022-09-09T12:11:10;1.98;;;1.10;;
23670;SDS011;12012;51.998;7.614;2022-09-09T12:13:36;3.05;;;1.10;;
23670;SDS011;12012;51.998;7.614;2022-09-09T12:16:03;2.10;;;1.00;;
23670;SDS011;12012;51.998;7.614;2022-09-09T12:18:37;4.90;;;1.00;;
23670;SDS011;12012;51.998;7.614;2022-09-09T12:21:15;3.33;;;1.23;;
23670;SDS011;12012;51.998;7.614;2022-09-09T12:23:55;5.13;;;1.30;;
23670;SDS011;12012;51.998;7.614;2022-09-09T12:34:18;2.97;;;1.10;;
23670;SDS011;12012;51.998;7.614;2022-09-09T12:36:58;2.33;;;1.00;;
23670;SDS011;12012;51.998;7.614;2022-09-09T12:39:29;4.53;;;1.15;;
23670;SDS011;12012;51.998;7.614;2022-09-09T12:42:15;2.33;;;0.93;;
23670;SDS011;12012;51.998;7.614;2022-09-09T12:44:50;6.63;;;1.40;;
23670;SDS011;12012;51.998;7.614;2022-09-09T12:47:29;3.13;;;1.17;;
23670;SDS011;12012;51.998;7.614;2022-09-09T12:50:03;3.75;;;0.93;;
23670;SDS011;12012;51.998;7.614;2022-09-09T12:52:33;3.78;;;1.00;;
23670;SDS011;12012;51.998;7.614;2022-09-09T12:55:03;3.05;;;1.00;;
23670;SDS011;12012;51.998;7.614;2022-09-09T12:57:33;2.83;;;1.10;;
23670;SDS011;12012;51.998;7.614;2022-09-09T13:00:07;4.00;;;1.20;;
23670;SDS011;12012;51.998;7.614;2022-09-09T13:02:46;2.78;;;1.48;;
23670;SDS011;12012;51.998;7.614;2022-09-09T13:05:23;2.25;;;0.90;;
23670;SDS011;12012;51.998;7.614;2022-09-09T13:07:49;2.67;;;1.13;;
23670;SDS011;12012;51.998;7.614;2022-09-09T13:10:19;4.18;;;1.08;;
23670;SDS011;12012;51.998;7.614;2022-09-09T13:12:48;4.93;;;1.30;;
23670;SDS011;12012;51.998;7.614;2022-09-09T13:15:18;2.20;;;1.05;;
23670;SDS011;12012;51.998;7.614;2022-09-09T13:17:50;3.97;;;1.10;;
23670;SDS011;12012;51.998;7.614;2022-09-09T13:20:25;3.38;;;1.17;;
23670;SDS011;12012;51.998;7.614;2022-09-09T13:22:52;3.65;;;1.15;;
23670;SDS011;12012;51.998;7.614;2022-09-09T13:25:24;2.60;;;1.23;;
23670;SDS011;12012;51.998;7.614;2022-09-09T13:30:24;3.35;;;1.00;;
23670;SDS011;12012;51.998;7.614;2022-09-09T13:35:50;6.13;;;1.90;;
23670;SDS011;12012;51.998;7.614;2022-09-09T13:38:24;6.15;;;2.20;;
23670;SDS011;12012;51.998;7.614;2022-09-09T13:43:27;6.47;;;1.98;;
23670;SDS011;12012;51.998;7.614;2022-09-09T13:45:54;3.20;;;1.88;;
23670;SDS011;12012;51.998;7.614;2022-09-09T13:48:21;3.20;;;1.50;;
23670;SDS011;12012;51.998;7.614;2022-09-09T13:53:55;6.03;;;1.75;;
23670;SDS011;12012;51.998;7.614;2022-09-09T13:56:21;3.50;;;1.60;;
23670;SDS011;12012;51.998;7.614;2022-09-09T13:58:47;1.50;;;1.20;;
23670;SDS011;12012;51.998;7.614;2022-09-09T14:01:12;4.10;;;1.20;;
23670;SDS011;12012;51.998;7.614;2022-09-09T14:03:38;3.60;;;1.50;;
23670;SDS011;12012;51.998;7.614;2022-09-09T14:06:04;2.60;;;1.70;;
23670;SDS011;12012;51.998;7.614;2022-09-09T14:08:29;3.15;;;1.88;;
23670;SDS011;12012;51.998;7.614;2022-09-09T14:11:01;2.92;;;1.40;;
23670;SDS011;12012;51.998;7.614;2022-09-09T14:13:28;4.93;;;1.60;;
23670;SDS011;12012;51.998;7.614;2022-09-09T14:15:53;4.45;;;1.73;;
23670;SDS011;12012;51.998;7.614;2022-09-09T14:18:19;2.65;;;1.30;;
23670;SDS011;12012;51.998;7.614;2022-09-09T14:20:45;4.47;;;1.67;;
23670;SDS011;12012;51.998;7.614;2022-09-09T14:23:11;5.82;;;1.90;;
23670;SDS011;12012;51.998;7.614;2022-09-09T14:25:39;6.70;;;2.05;;
23670;SDS011;12012;51.998;7.614;2022-09-09T14:28:07;3.88;;;1.60;;
23670;SDS011;12012;51.998;7.614;2022-09-09T14:30:37;4.15;;;1.75;;
23670;SDS011;12012;51.998;7.614;2022-09-09T14:33:04;2.88;;;1.67;;
23670;SDS011;12012;51.998;7.614;2022-09-09T14:35:30;5.90;;;1.95;;
23670;SDS011;12012;51.998;7.614;2022-09-09T14:37:58;3.83;;;1.60;;
23670;SDS011;12012;51.998;7.614;2022-09-09T14:40:23;3.15;;;1.60;;
23670;SDS011;12012;51.998;7.614;2022-09-09T14:42:49;3.92;;;1.67;;
23670;SDS011;12012;51.998;7.614;2022-09-09T14:45:15;3.60;;;1.58;;
23670;SDS011;12012;51.998;7.614;2022-09-09T14:47:40;2.63;;;1.42;;
23670;SDS011;12012;51.998;7.614;2022-09-09T14:50:06;3.90;;;1.30;;
23670;SDS011;12012;51.998;7.614;2022-09-09T14:52:32;3.22;;;1.42;;
23670;SDS011;12012;51.998;7.614;2022-09-09T14:54:58;3.28;;;1.85;;
23670;SDS011;12012;51.998;7.614;2022-09-09T14:57:24;3.13;;;1.75;;
23670;SDS011;12012;51.998;7.614;2022-09-09T14:59:49;3.60;;;1.50;;
23670;SDS011;12012;51.998;7.614;2022-09-09T15:02:15;4.32;;;1.50;;
23670;SDS011;12012;51.998;7.614;2022-09-09T15:04:41;2.90;;;1.30;;
23670;SDS011;12012;51.998;7.614;2022-09-09T15:07:07;2.00;;;1.10;;
23670;SDS011;12012;51.998;7.614;2022-09-09T15:09:32;1.83;;;1.00;;
23670;SDS011;12012;51.998;7.614;2022-09-09T15:11:58;2.03;;;1.00;;
23670;SDS011;12012;51.998;7.614;2022-09-09T15:14:24;2.42;;;1.27;;
23670;SDS011;12012;51.998;7.614;2022-09-09T15:16:51;2.08;;;1.00;;
23670;SDS011;12012;51.998;7.614;2022-09-09T15:19:16;3.03;;;1.10;;
23670;SDS011;12012;51.998;7.614;2022-09-09T15:21:42;1.83;;;0.90;;
23670;SDS011;12012;51.998;7.614;2022-09-09T15:24:07;2.15;;;1.13;;
23670;SDS011;12012;51.998;7.614;2022-09-09T15:26:33;5.57;;;1.60;;
23670;SDS011;12012;51.998;7.614;2022-09-09T15:28:59;3.08;;;1.38;;
23670;SDS011;12012;51.998;7.614;2022-09-09T15:31:26;2.42;;;1.40;;
23670;SDS011;12012;51.998;7.614;2022-09-09T15:34:03;3.92;;;1.10;;
23670;SDS011;12012;51.998;7.614;2022-09-09T15:36:35;4.13;;;1.40;;
23670;SDS011;12012;51.998;7.614;2022-09-09T15:39:12;2.28;;;1.10;;
23670;SDS011;12012;51.998;7.614;2022-09-09T15:41:41;1.48;;;0.98;;
23670;SDS011;12012;51.998;7.614;2022-09-09T15:44:08;1.98;;;1.10;;
23670;SDS011;12012;51.998;7.614;2022-09-09T15:46:38;3.08;;;1.10;;
23670;SDS011;12012;51.998;7.614;2022-09-09T15:49:09;4.20;;;1.02;;
23670;SDS011;12012;51.998;7.614;2022-09-09T15:51:36;2.08;;;0.95;;
23670;SDS011;12012;51.998;7.614;2022-09-09T15:54:03;3.33;;;1.10;;
23670;SDS011;12012;51.998;7.614;2022-09-09T15:56:29;4.40;;;1.48;;
23670;SDS011;12012;51.998;7.614;2022-09-09T15:58:56;2.95;;;1.20;;
23670;SDS011;12012;51.998;7.614;2022-09-09T16:01:22;3.55;;;1.77;;
23670;SDS011;12012;51.998;7.614;2022-09-09T16:03:48;2.85;;;1.30;;
23670;SDS011;12012;51.998;7.614;2022-09-09T16:06:16;3.63;;;1.45;;
23670;SDS011;12012;51.998;7.614;2022-09-09T16:08:43;4.22;;;1.80;;
23670;SDS011;12012;51.998;7.614;2022-09-09T16:11:12;3.15;;;1.52;;
23670;SDS011;12012;51.998;7.614;2022-09-09T16:13:40;1.95;;;1.30;;
23670;SDS011;12012;51.998;7.614;2022-09-09T16:16:06;5.20;;;1.73;;
23670;SDS011;12012;51.998;7.614;2022-09-09T16:18:34;3.30;;;1.50;;
23670;SDS011;12012;51.998;7.614;2022-09-09T16:21:01;4.13;;;1.50;;
23670;SDS011;12012;51.998;7.614;2022-09-09T16:23:30;4.22;;;2.13;;
23670;SDS011;12012;51.998;7.614;2022-09-09T16:25:57;2.97;;;1.55;;
23670;SDS011;12012;51.998;7.614;2022-09-09T16:28:23;4.32;;;1.83;;
23670;SDS011;12012;51.998;7.614;2022-09-09T16:30:48;6.20;;;1.80;;
23670;SDS011;12012;51.998;7.614;2022-09-09T16:33:14;6.85;;;2.00;;
23670;SDS011;12012;51.998;7.614;2022-09-09T16:35:41;6.88;;;2.10;;
23670;SDS011;12012;51.998;7.614;2022-09-09T16:38:06;4.05;;;1.88;;
23670;SDS011;12012;51.998;7.614;2022-09-09T16:40:38;4.07;;;2.25;;
23670;SDS011;12012;51.998;7.614;2022-09-09T16:43:06;8.00;;;2.50;;
23670;SDS011;12012;51.998;7.614;2022-09-09T16:45:32;8.02;;;2.95;;
23670;SDS011;12012;51.998;7.614;2022-09-09T16:47:59;2.50;;;2.20;;
23670;SDS011;12012;51.998;7.614;2022-09-09T16:50:25;6.85;;;2.72;;
23670;SDS011;12012;51.998;7.614;2022-09-09T16:52:52;4.00;;;2.28;;
23670;SDS011;12012;51.998;7.614;2022-09-09T16:55:17;5.38;;;1.98;;
23670;SDS011;12012;51.998;7.614;2022-09-09T16:57:45;4.53;;;2.15;;
23670;SDS011;12012;51.998;7.614;2022-09-09T17:00:14;4.85;;;2.20;;
23670;SDS011;12012;51.998;7.614;2022-09-09T17:02:41;7.40;;;2.65;;
23670;SDS011;12012;51.998;7.614;2022-09-09T17:05:07;4.05;;;2.58;;
23670;SDS011;12012;51.998;7.614;2022-09-09T17:07:32;6.35;;;2.95;;
23670;SDS011;12012;51.998;7.614;2022-09-09T17:09:58;6.47;;;2.88;;
23670;SDS011;12012;51.998;7.614;2022-09-09T17:12:24;4.50;;;2.10;;
23670;SDS011;12012;51.998;7.614;2022-09-09T17:14:50;4.88;;;2.00;;
23670;SDS011;12012;51.998;7.614;2022-09-09T17:17:15;4.63;;;2.45;;